sensor_id;sensor_type;location;lat;lon;timestamp;P1;durP1;ratioP1;P2;durP2;ratioP2
23866;SDS011;12114;53.404;-1.502;2023-03-31T00:01:26;30.90;;;6.07;;
23866;SDS011;12114;53.404;-1.502;2023-03-31T00:04:11;27.85;;;5.47;;
23866;SDS011;12114;53.404;-1.502;2023-03-31T00:06:55;32.60;;;5.43;;
23866;SDS011;12114;53.404;-1.502;2023-03-31T00:09:39;29.45;;;5.18;;
23866;SDS011;12114;53.404;-1.502;2023-03-31T00:12:24;35.97;;;6.15;;
23866;SDS011;12114;53.404;-1.502;2023-03-31T00:15:08;27.95;;;5.55;;
23866;SDS011;12114;53.404;-1.502;2023-03-31T00:17:53;28.83;;;6.55;;
23866;SDS011;12114;53.404;-1.502;2023-03-31T00:20:37;34.55;;;5.53;;
23866;SDS011;12114;53.404;-1.502;2023-03-31T00:23:21;34.75;;;6.97;;
23866;SDS011;12114;53.404;-1.502;2023-03-31T00:26:10;31.55;;;6.53;;
23866;SDS011;12114;53.404;-1.502;2023-03-31T00:28:54;28.92;;;5.65;;
23866;SDS011;12114;53.404;-1.502;2023-03-31T00:31:39;32.10;;;6.22;;
23866;SDS011;12114;53.404;-1.502;2023-03-31T00:34:23;35.20;;;7.00;;
23866;SDS011;12114;53.404;-1.502;2023-03-31T00:37:06;30.85;;;5.50;;
23866;SDS011;12114;53.404;-1.502;2023-03-31T00:39:52;24.45;;;5.93;;
23866;SDS011;12114;53.404;-1.502;2023-03-31T00:42:40;25.58;;;5.75;;
23866;SDS011;12114;53.404;-1.502;2023-03-31T00:45:26;23.42;;;4.50;;
23866;SDS011;12114;53.404;-1.502;2023-03-31T00:48:13;33.25;;;9.27;;
23866;SDS011;12114;53.404;-1.502;2023-03-31T00:51:02;55.13;;;22.15;;
23866;SDS011;12114;53.404;-1.502;2023-03-31T00:53:49;27.50;;;5.30;;
23866;SDS011;12114;53.404;-1.502;2023-03-31T00:56:42;27.30;;;5.72;;
23866;SDS011;12114;53.404;-1.502;2023-03-31T00:59:32;30.50;;;5.75;;
23866;SDS011;12114;53.404;-1.502;2023-03-31T01:02:21;29.48;;;8.30;;
23866;SDS011;12114;53.404;-1.502;2023-03-31T01:05:08;30.15;;;6.95;;
23866;SDS011;12114;53.404;-1.502;2023-03-31T01:07:52;20.70;;;4.47;;
23866;SDS011;12114;53.404;-1.502;2023-03-31T01:10:42;25.83;;;4.65;;
23866;SDS011;12114;53.404;-1.502;2023-03-31T01:13:31;25.70;;;4.68;;
23866;SDS011;12114;53.404;-1.502;2023-03-31T01:16:18;29.80;;;4.93;;
23866;SDS011;12114;53.404;-1.502;2023-03-31T01:19:02;24.90;;;5.10;;
23866;SDS011;12114;53.404;-1.502;2023-03-31T01:24:57;24.40;;;7.45;;
23866;SDS011;12114;53.404;-1.502;2023-03-31T01:37:21;22.33;;;8.52;;
23866;SDS011;12114;53.404;-1.502;2023-03-31T01:43:43;25.00;;;5.97;;
23866;SDS011;12114;53.404;-1.502;2023-03-31T01:46:40;20.30;;;6.60;;
23866;SDS011;12114;53.404;-1.502;2023-03-31T01:49:42;31.02;;;6.28;;
23866;SDS011;12114;53.404;-1.502;2023-03-31T01:55:19;30.52;;;5.72;;
23866;SDS011;12114;53.404;-1.502;2023-03-31T01:58:11;25.63;;;6.10;;
23866;SDS011;12114;53.404;-1.502;2023-03-31T02:04:17;22.42;;;5.30;;
23866;SDS011;12114;53.404;-1.502;2023-03-31T02:07:07;24.27;;;5.13;;
23866;SDS011;12114;53.404;-1.502;2023-03-31T02:09:56;25.45;;;5.28;;
23866;SDS011;12114;53.404;-1.502;2023-03-31T02:12:44;23.58;;;5.18;;
23866;SDS011;12114;53.404;-1.502;2023-03-31T02:15:35;26.23;;;4.90;;
23866;SDS011;12114;53.404;-1.502;2023-03-31T02:18:22;21.48;;;5.22;;
23866;SDS011;12114;53.404;-1.502;2023-03-31T02:21:13;26.65;;;6.30;;
23866;SDS011;12114;53.404;-1.502;2023-03-31T02:23:59;29.05;;;7.50;;
23866;SDS011;12114;53.404;-1.502;2023-03-31T02:27:04;29.95;;;7.07;;
23866;SDS011;12114;53.404;-1.502;2023-03-31T02:29:55;24.17;;;6.07;;
23866;SDS011;12114;53.404;-1.502;2023-03-31T02:32:41;21.77;;;5.70;;
23866;SDS011;12114;53.404;-1.502;2023-03-31T02:38:10;30.90;;;7.32;;
23866;SDS011;12114;53.404;-1.502;2023-03-31T02:40:54;28.20;;;7.88;;
23866;SDS011;12114;53.404;-1.502;2023-03-31T02:43:39;23.35;;;8.43;;
23866;SDS011;12114;53.404;-1.502;2023-03-31T02:46:24;23.92;;;8.73;;
23866;SDS011;12114;53.404;-1.502;2023-03-31T02:49:09;26.20;;;10.38;;
23866;SDS011;12114;53.404;-1.502;2023-03-31T02:55:31;23.63;;;8.63;;
23866;SDS011;12114;53.404;-1.502;2023-03-31T03:16:42;22.33;;;7.45;;
23866;SDS011;12114;53.404;-1.502;2023-03-31T03:19:30;20.65;;;7.60;;
23866;SDS011;12114;53.404;-1.502;2023-03-31T03:22:14;17.35;;;7.18;;
23866;SDS011;12114;53.404;-1.502;2023-03-31T03:24:59;22.75;;;7.30;;
23866;SDS011;12114;53.404;-1.502;2023-03-31T03:27:44;20.83;;;6.70;;
23866;SDS011;12114;53.404;-1.502;2023-03-31T03:30:28;19.55;;;6.60;;
23866;SDS011;12114;53.404;-1.502;2023-03-31T03:33:12;22.95;;;8.20;;
23866;SDS011;12114;53.404;-1.502;2023-03-31T03:35:59;20.45;;;7.78;;
23866;SDS011;12114;53.404;-1.502;2023-03-31T03:38:44;21.67;;;8.00;;
23866;SDS011;12114;53.404;-1.502;2023-03-31T03:41:28;18.85;;;9.20;;
23866;SDS011;12114;53.404;-1.502;2023-03-31T03:44:12;22.60;;;10.43;;
23866;SDS011;12114;53.404;-1.502;2023-03-31T03:46:56;24.80;;;11.75;;
23866;SDS011;12114;53.404;-1.502;2023-03-31T03:49:40;21.88;;;10.98;;
23866;SDS011;12114;53.404;-1.502;2023-03-31T03:52:23;24.70;;;12.25;;
23866;SDS011;12114;53.404;-1.502;2023-03-31T03:55:08;27.33;;;13.10;;
23866;SDS011;12114;53.404;-1.502;2023-03-31T03:57:52;22.83;;;12.13;;
23866;SDS011;12114;53.404;-1.502;2023-03-31T04:00:36;24.13;;;13.18;;
23866;SDS011;12114;53.404;-1.502;2023-03-31T04:03:20;25.00;;;12.73;;
23866;SDS011;12114;53.404;-1.502;2023-03-31T04:06:04;28.13;;;11.85;;
23866;SDS011;12114;53.404;-1.502;2023-03-31T04:08:48;20.73;;;10.23;;
23866;SDS011;12114;53.404;-1.502;2023-03-31T04:11:33;18.05;;;9.68;;
23866;SDS011;12114;53.404;-1.502;2023-03-31T04:14:18;18.67;;;9.77;;
23866;SDS011;12114;53.404;-1.502;2023-03-31T04:17:02;18.55;;;9.23;;
23866;SDS011;12114;53.404;-1.502;2023-03-31T04:19:46;18.85;;;9.13;;
23866;SDS011;12114;53.404;-1.502;2023-03-31T04:22:33;18.65;;;8.68;;
23866;SDS011;12114;53.404;-1.502;2023-03-31T04:25:23;16.98;;;8.27;;
23866;SDS011;12114;53.404;-1.502;2023-03-31T04:28:07;15.52;;;7.72;;
23866;SDS011;12114;53.404;-1.502;2023-03-31T04:30:53;20.50;;;8.38;;
23866;SDS011;12114;53.404;-1.502;2023-03-31T04:33:37;18.90;;;7.72;;
23866;SDS011;12114;53.404;-1.502;2023-03-31T04:36:21;14.70;;;7.10;;
23866;SDS011;12114;53.404;-1.502;2023-03-31T04:39:05;15.10;;;6.93;;
23866;SDS011;12114;53.404;-1.502;2023-03-31T04:41:53;12.20;;;6.85;;
23866;SDS011;12114;53.404;-1.502;2023-03-31T04:44:37;15.23;;;6.78;;
23866;SDS011;12114;53.404;-1.502;2023-03-31T04:47:21;16.58;;;7.88;;
23866;SDS011;12114;53.404;-1.502;2023-03-31T04:50:05;16.08;;;7.70;;
23866;SDS011;12114;53.404;-1.502;2023-03-31T04:52:50;12.93;;;6.77;;
23866;SDS011;12114;53.404;-1.502;2023-03-31T04:55:34;13.73;;;6.85;;
23866;SDS011;12114;53.404;-1.502;2023-03-31T04:58:19;11.95;;;7.05;;
23866;SDS011;12114;53.404;-1.502;2023-03-31T05:01:03;13.50;;;7.00;;
23866;SDS011;12114;53.404;-1.502;2023-03-31T05:03:50;15.43;;;6.80;;
23866;SDS011;12114;53.404;-1.502;2023-03-31T05:06:34;12.88;;;7.30;;
23866;SDS011;12114;53.404;-1.502;2023-03-31T05:09:18;15.75;;;7.72;;
23866;SDS011;12114;53.404;-1.502;2023-03-31T05:12:03;15.20;;;7.50;;
23866;SDS011;12114;53.404;-1.502;2023-03-31T05:14:47;14.02;;;7.53;;
23866;SDS011;12114;53.404;-1.502;2023-03-31T05:17:31;12.00;;;7.13;;
23866;SDS011;12114;53.404;-1.502;2023-03-31T05:20:16;13.07;;;6.67;;
23866;SDS011;12114;53.404;-1.502;2023-03-31T05:25:46;10.15;;;7.35;;
23866;SDS011;12114;53.404;-1.502;2023-03-31T05:28:30;13.60;;;7.88;;
23866;SDS011;12114;53.404;-1.502;2023-03-31T05:31:14;17.15;;;8.32;;
23866;SDS011;12114;53.404;-1.502;2023-03-31T05:33:59;14.23;;;8.32;;
23866;SDS011;12114;53.404;-1.502;2023-03-31T05:36:42;13.68;;;7.10;;
23866;SDS011;12114;53.404;-1.502;2023-03-31T05:39:26;16.33;;;7.88;;
23866;SDS011;12114;53.404;-1.502;2023-03-31T05:42:15;15.43;;;7.95;;
23866;SDS011;12114;53.404;-1.502;2023-03-31T05:45:00;17.70;;;8.02;;
23866;SDS011;12114;53.404;-1.502;2023-03-31T05:47:44;15.52;;;7.72;;
23866;SDS011;12114;53.404;-1.502;2023-03-31T05:50:28;12.95;;;7.55;;
23866;SDS011;12114;53.404;-1.502;2023-03-31T05:53:12;16.65;;;7.93;;
23866;SDS011;12114;53.404;-1.502;2023-03-31T05:55:59;16.38;;;8.73;;
23866;SDS011;12114;53.404;-1.502;2023-03-31T05:58:44;19.35;;;9.38;;
23866;SDS011;12114;53.404;-1.502;2023-03-31T06:01:29;13.65;;;9.27;;
23866;SDS011;12114;53.404;-1.502;2023-03-31T06:04:13;15.05;;;8.88;;
23866;SDS011;12114;53.404;-1.502;2023-03-31T06:06:57;14.63;;;8.20;;
23866;SDS011;12114;53.404;-1.502;2023-03-31T06:09:41;15.15;;;7.95;;
23866;SDS011;12114;53.404;-1.502;2023-03-31T06:12:25;14.98;;;8.70;;
23866;SDS011;12114;53.404;-1.502;2023-03-31T06:15:09;16.23;;;9.02;;
23866;SDS011;12114;53.404;-1.502;2023-03-31T06:17:54;10.70;;;6.68;;
23866;SDS011;12114;53.404;-1.502;2023-03-31T06:20:38;15.07;;;7.53;;
23866;SDS011;12114;53.404;-1.502;2023-03-31T06:23:22;13.65;;;8.65;;
23866;SDS011;12114;53.404;-1.502;2023-03-31T06:26:07;15.10;;;7.85;;
23866;SDS011;12114;53.404;-1.502;2023-03-31T06:28:51;15.52;;;7.93;;
23866;SDS011;12114;53.404;-1.502;2023-03-31T06:31:36;12.15;;;7.35;;
23866;SDS011;12114;53.404;-1.502;2023-03-31T06:34:20;15.93;;;7.47;;
23866;SDS011;12114;53.404;-1.502;2023-03-31T06:37:04;15.57;;;9.32;;
23866;SDS011;12114;53.404;-1.502;2023-03-31T06:39:48;12.43;;;7.90;;
23866;SDS011;12114;53.404;-1.502;2023-03-31T06:42:33;15.27;;;9.90;;
23866;SDS011;12114;53.404;-1.502;2023-03-31T06:45:17;20.40;;;14.40;;
23866;SDS011;12114;53.404;-1.502;2023-03-31T06:48:01;19.70;;;10.50;;
23866;SDS011;12114;53.404;-1.502;2023-03-31T06:50:45;20.08;;;9.57;;
23866;SDS011;12114;53.404;-1.502;2023-03-31T06:53:29;15.07;;;9.05;;
23866;SDS011;12114;53.404;-1.502;2023-03-31T06:56:14;16.33;;;9.82;;
23866;SDS011;12114;53.404;-1.502;2023-03-31T06:58:58;15.20;;;10.05;;
23866;SDS011;12114;53.404;-1.502;2023-03-31T07:01:43;19.25;;;12.27;;
23866;SDS011;12114;53.404;-1.502;2023-03-31T07:04:28;18.38;;;11.98;;
23866;SDS011;12114;53.404;-1.502;2023-03-31T07:07:12;20.08;;;13.13;;
23866;SDS011;12114;53.404;-1.502;2023-03-31T07:09:56;19.25;;;11.68;;
23866;SDS011;12114;53.404;-1.502;2023-03-31T07:12:41;23.52;;;12.82;;
23866;SDS011;12114;53.404;-1.502;2023-03-31T07:15:25;24.30;;;14.45;;
23866;SDS011;12114;53.404;-1.502;2023-03-31T07:20:55;25.75;;;16.08;;
23866;SDS011;12114;53.404;-1.502;2023-03-31T07:23:39;30.15;;;19.02;;
23866;SDS011;12114;53.404;-1.502;2023-03-31T07:26:23;23.92;;;16.70;;
23866;SDS011;12114;53.404;-1.502;2023-03-31T07:29:07;28.10;;;17.23;;
23866;SDS011;12114;53.404;-1.502;2023-03-31T07:31:51;26.15;;;17.70;;
23866;SDS011;12114;53.404;-1.502;2023-03-31T07:34:35;29.80;;;19.95;;
23866;SDS011;12114;53.404;-1.502;2023-03-31T07:37:19;23.52;;;16.27;;
23866;SDS011;12114;53.404;-1.502;2023-03-31T07:40:04;28.00;;;17.42;;
23866;SDS011;12114;53.404;-1.502;2023-03-31T07:42:49;25.75;;;16.05;;
23866;SDS011;12114;53.404;-1.502;2023-03-31T07:45:34;24.50;;;15.20;;
23866;SDS011;12114;53.404;-1.502;2023-03-31T07:48:18;20.15;;;12.88;;
23866;SDS011;12114;53.404;-1.502;2023-03-31T07:51:02;19.98;;;12.48;;
23866;SDS011;12114;53.404;-1.502;2023-03-31T07:53:46;16.17;;;11.13;;
23866;SDS011;12114;53.404;-1.502;2023-03-31T07:56:34;16.55;;;9.75;;
23866;SDS011;12114;53.404;-1.502;2023-03-31T07:59:19;18.52;;;10.95;;
23866;SDS011;12114;53.404;-1.502;2023-03-31T08:02:03;14.70;;;8.73;;
23866;SDS011;12114;53.404;-1.502;2023-03-31T08:04:48;12.95;;;8.30;;
23866;SDS011;12114;53.404;-1.502;2023-03-31T08:07:33;13.02;;;7.63;;
23866;SDS011;12114;53.404;-1.502;2023-03-31T08:10:23;13.70;;;7.28;;
23866;SDS011;12114;53.404;-1.502;2023-03-31T08:13:09;11.60;;;6.78;;
23866;SDS011;12114;53.404;-1.502;2023-03-31T08:15:54;11.65;;;6.60;;
23866;SDS011;12114;53.404;-1.502;2023-03-31T08:18:37;11.82;;;5.90;;
23866;SDS011;12114;53.404;-1.502;2023-03-31T08:21:21;12.63;;;6.53;;
23866;SDS011;12114;53.404;-1.502;2023-03-31T08:24:05;14.90;;;7.63;;
23866;SDS011;12114;53.404;-1.502;2023-03-31T08:26:49;9.13;;;6.32;;
23866;SDS011;12114;53.404;-1.502;2023-03-31T08:29:33;13.45;;;7.30;;
23866;SDS011;12114;53.404;-1.502;2023-03-31T08:32:17;12.20;;;6.40;;
23866;SDS011;12114;53.404;-1.502;2023-03-31T08:35:05;10.73;;;5.88;;
23866;SDS011;12114;53.404;-1.502;2023-03-31T08:37:49;15.40;;;7.37;;
23866;SDS011;12114;53.404;-1.502;2023-03-31T08:40:33;11.10;;;7.05;;
23866;SDS011;12114;53.404;-1.502;2023-03-31T08:43:21;15.20;;;6.95;;
23866;SDS011;12114;53.404;-1.502;2023-03-31T08:46:10;9.02;;;6.63;;
23866;SDS011;12114;53.404;-1.502;2023-03-31T08:48:56;10.93;;;6.70;;
23866;SDS011;12114;53.404;-1.502;2023-03-31T08:51:49;10.35;;;6.82;;
23866;SDS011;12114;53.404;-1.502;2023-03-31T08:54:38;10.07;;;6.95;;
23866;SDS011;12114;53.404;-1.502;2023-03-31T08:57:25;10.80;;;6.65;;
23866;SDS011;12114;53.404;-1.502;2023-03-31T09:00:17;10.25;;;7.30;;
23866;SDS011;12114;53.404;-1.502;2023-03-31T09:03:04;12.23;;;8.73;;
23866;SDS011;12114;53.404;-1.502;2023-03-31T09:06:21;10.75;;;6.53;;
23866;SDS011;12114;53.404;-1.502;2023-03-31T09:12:34;21.13;;;10.38;;
23866;SDS011;12114;53.404;-1.502;2023-03-31T09:15:39;19.48;;;12.10;;
23866;SDS011;12114;53.404;-1.502;2023-03-31T09:21:34;22.20;;;15.45;;
23866;SDS011;12114;53.404;-1.502;2023-03-31T09:27:11;27.58;;;18.08;;
23866;SDS011;12114;53.404;-1.502;2023-03-31T09:32:45;31.60;;;19.35;;
23866;SDS011;12114;53.404;-1.502;2023-03-31T09:35:32;33.20;;;19.55;;
23866;SDS011;12114;53.404;-1.502;2023-03-31T09:38:16;31.05;;;18.27;;
23866;SDS011;12114;53.404;-1.502;2023-03-31T09:41:01;30.45;;;18.92;;
23866;SDS011;12114;53.404;-1.502;2023-03-31T09:43:46;27.00;;;15.95;;
23866;SDS011;12114;53.404;-1.502;2023-03-31T09:46:34;26.25;;;16.42;;
23866;SDS011;12114;53.404;-1.502;2023-03-31T09:49:22;21.85;;;14.52;;
23866;SDS011;12114;53.404;-1.502;2023-03-31T09:52:19;23.92;;;14.68;;
23866;SDS011;12114;53.404;-1.502;2023-03-31T09:55:25;26.52;;;16.60;;
23866;SDS011;12114;53.404;-1.502;2023-03-31T09:58:15;31.52;;;18.67;;
23866;SDS011;12114;53.404;-1.502;2023-03-31T10:01:04;29.00;;;16.35;;
23866;SDS011;12114;53.404;-1.502;2023-03-31T10:03:52;25.83;;;14.43;;
23866;SDS011;12114;53.404;-1.502;2023-03-31T10:06:41;26.33;;;14.00;;
23866;SDS011;12114;53.404;-1.502;2023-03-31T10:09:26;21.15;;;11.88;;
23866;SDS011;12114;53.404;-1.502;2023-03-31T10:12:18;20.48;;;12.70;;
23866;SDS011;12114;53.404;-1.502;2023-03-31T10:15:40;22.08;;;12.70;;
23866;SDS011;12114;53.404;-1.502;2023-03-31T10:18:20;20.15;;;11.68;;
23866;SDS011;12114;53.404;-1.502;2023-03-31T10:21:19;19.40;;;10.27;;
23866;SDS011;12114;53.404;-1.502;2023-03-31T10:24:09;18.15;;;11.10;;
23866;SDS011;12114;53.404;-1.502;2023-03-31T10:27:00;15.50;;;10.40;;
23866;SDS011;12114;53.404;-1.502;2023-03-31T10:29:44;13.55;;;9.90;;
23866;SDS011;12114;53.404;-1.502;2023-03-31T10:32:28;20.00;;;10.95;;
23866;SDS011;12114;53.404;-1.502;2023-03-31T10:38:11;20.48;;;11.95;;
23866;SDS011;12114;53.404;-1.502;2023-03-31T10:40:58;21.95;;;13.20;;
23866;SDS011;12114;53.404;-1.502;2023-03-31T10:43:47;14.85;;;10.07;;
23866;SDS011;12114;53.404;-1.502;2023-03-31T10:46:47;24.35;;;13.55;;
23866;SDS011;12114;53.404;-1.502;2023-03-31T10:49:36;19.95;;;14.07;;
23866;SDS011;12114;53.404;-1.502;2023-03-31T10:52:23;21.23;;;14.05;;
23866;SDS011;12114;53.404;-1.502;2023-03-31T10:55:11;27.75;;;17.52;;
23866;SDS011;12114;53.404;-1.502;2023-03-31T10:58:00;28.85;;;18.45;;
23866;SDS011;12114;53.404;-1.502;2023-03-31T11:07:11;27.30;;;19.40;;
23866;SDS011;12114;53.404;-1.502;2023-03-31T11:13:25;26.63;;;17.90;;
23866;SDS011;12114;53.404;-1.502;2023-03-31T11:25:26;15.75;;;11.25;;
23866;SDS011;12114;53.404;-1.502;2023-03-31T11:28:31;18.13;;;12.05;;
23866;SDS011;12114;53.404;-1.502;2023-03-31T11:43:00;6.78;;;4.03;;
23866;SDS011;12114;53.404;-1.502;2023-03-31T11:45:59;8.00;;;4.18;;
23866;SDS011;12114;53.404;-1.502;2023-03-31T11:54:56;3.85;;;2.90;;
23866;SDS011;12114;53.404;-1.502;2023-03-31T11:57:56;5.80;;;3.15;;
23866;SDS011;12114;53.404;-1.502;2023-03-31T12:03:53;4.68;;;4.00;;
23866;SDS011;12114;53.404;-1.502;2023-03-31T12:06:48;5.32;;;3.38;;
23866;SDS011;12114;53.404;-1.502;2023-03-31T12:09:37;6.70;;;4.22;;
23866;SDS011;12114;53.404;-1.502;2023-03-31T12:12:27;5.63;;;3.83;;
23866;SDS011;12114;53.404;-1.502;2023-03-31T12:15:22;5.65;;;4.22;;
23866;SDS011;12114;53.404;-1.502;2023-03-31T12:21:01;10.95;;;7.00;;
23866;SDS011;12114;53.404;-1.502;2023-03-31T12:23:46;9.45;;;7.60;;
23866;SDS011;12114;53.404;-1.502;2023-03-31T12:26:32;12.88;;;8.65;;
23866;SDS011;12114;53.404;-1.502;2023-03-31T12:29:33;15.30;;;10.13;;
23866;SDS011;12114;53.404;-1.502;2023-03-31T12:32:18;13.57;;;8.63;;
23866;SDS011;12114;53.404;-1.502;2023-03-31T12:52:11;9.18;;;5.80;;
23866;SDS011;12114;53.404;-1.502;2023-03-31T12:57:42;5.93;;;4.05;;
23866;SDS011;12114;53.404;-1.502;2023-03-31T13:00:26;9.13;;;4.18;;
23866;SDS011;12114;53.404;-1.502;2023-03-31T13:11:56;8.43;;;5.97;;
23866;SDS011;12114;53.404;-1.502;2023-03-31T13:14:41;6.85;;;6.07;;
23866;SDS011;12114;53.404;-1.502;2023-03-31T13:20:52;8.95;;;6.05;;
23866;SDS011;12114;53.404;-1.502;2023-03-31T13:23:20;9.55;;;5.55;;
23866;SDS011;12114;53.404;-1.502;2023-03-31T13:26:04;9.90;;;5.78;;
23866;SDS011;12114;53.404;-1.502;2023-03-31T13:29:07;13.20;;;7.30;;
23866;SDS011;12114;53.404;-1.502;2023-03-31T13:34:47;10.35;;;7.70;;
23866;SDS011;12114;53.404;-1.502;2023-03-31T13:37:38;14.00;;;8.02;;
23866;SDS011;12114;53.404;-1.502;2023-03-31T13:51:54;13.05;;;8.25;;
23866;SDS011;12114;53.404;-1.502;2023-03-31T14:00:41;16.42;;;9.20;;
23866;SDS011;12114;53.404;-1.502;2023-03-31T14:06:22;14.80;;;9.88;;
23866;SDS011;12114;53.404;-1.502;2023-03-31T14:09:42;16.20;;;8.68;;
23866;SDS011;12114;53.404;-1.502;2023-03-31T14:12:19;13.93;;;9.32;;
23866;SDS011;12114;53.404;-1.502;2023-03-31T14:15:04;14.45;;;8.50;;
23866;SDS011;12114;53.404;-1.502;2023-03-31T14:17:49;14.90;;;8.80;;
23866;SDS011;12114;53.404;-1.502;2023-03-31T14:20:39;17.85;;;10.05;;
23866;SDS011;12114;53.404;-1.502;2023-03-31T14:29:30;18.10;;;10.10;;
23866;SDS011;12114;53.404;-1.502;2023-03-31T14:38:00;21.30;;;12.88;;
23866;SDS011;12114;53.404;-1.502;2023-03-31T14:40:47;19.58;;;12.73;;
23866;SDS011;12114;53.404;-1.502;2023-03-31T14:43:32;21.48;;;14.30;;
23866;SDS011;12114;53.404;-1.502;2023-03-31T14:46:20;20.15;;;13.48;;
23866;SDS011;12114;53.404;-1.502;2023-03-31T14:51:59;18.05;;;13.18;;
23866;SDS011;12114;53.404;-1.502;2023-03-31T14:54:43;20.25;;;12.95;;
23866;SDS011;12114;53.404;-1.502;2023-03-31T14:57:34;21.40;;;13.43;;
23866;SDS011;12114;53.404;-1.502;2023-03-31T15:00:21;20.15;;;13.55;;
23866;SDS011;12114;53.404;-1.502;2023-03-31T15:03:08;20.35;;;15.02;;
23866;SDS011;12114;53.404;-1.502;2023-03-31T15:05:56;24.92;;;15.32;;
23866;SDS011;12114;53.404;-1.502;2023-03-31T15:08:41;20.95;;;15.13;;
23866;SDS011;12114;53.404;-1.502;2023-03-31T15:11:24;20.92;;;14.35;;
23866;SDS011;12114;53.404;-1.502;2023-03-31T15:14:10;21.67;;;13.73;;
23866;SDS011;12114;53.404;-1.502;2023-03-31T15:16:54;25.50;;;14.45;;
23866;SDS011;12114;53.404;-1.502;2023-03-31T15:19:38;22.77;;;14.20;;
23866;SDS011;12114;53.404;-1.502;2023-03-31T15:22:24;26.85;;;15.93;;
23866;SDS011;12114;53.404;-1.502;2023-03-31T15:25:11;18.50;;;12.65;;
23866;SDS011;12114;53.404;-1.502;2023-03-31T15:27:57;20.48;;;12.95;;
23866;SDS011;12114;53.404;-1.502;2023-03-31T15:30:43;19.50;;;12.02;;
23866;SDS011;12114;53.404;-1.502;2023-03-31T15:36:13;21.08;;;10.48;;
23866;SDS011;12114;53.404;-1.502;2023-03-31T15:38:57;14.98;;;9.38;;
23866;SDS011;12114;53.404;-1.502;2023-03-31T15:41:45;16.92;;;10.68;;
23866;SDS011;12114;53.404;-1.502;2023-03-31T15:47:30;13.00;;;7.57;;
23866;SDS011;12114;53.404;-1.502;2023-03-31T15:50:15;12.23;;;6.55;;
23866;SDS011;12114;53.404;-1.502;2023-03-31T15:53:00;6.93;;;4.72;;
23866;SDS011;12114;53.404;-1.502;2023-03-31T15:55:46;8.50;;;5.40;;
23866;SDS011;12114;53.404;-1.502;2023-03-31T16:01:30;8.18;;;5.50;;
23866;SDS011;12114;53.404;-1.502;2023-03-31T16:04:17;7.32;;;5.72;;
23866;SDS011;12114;53.404;-1.502;2023-03-31T16:09:49;7.93;;;5.07;;
23866;SDS011;12114;53.404;-1.502;2023-03-31T16:12:39;7.75;;;5.43;;
23866;SDS011;12114;53.404;-1.502;2023-03-31T16:15:29;8.57;;;4.95;;
23866;SDS011;12114;53.404;-1.502;2023-03-31T16:18:26;11.25;;;5.10;;
23866;SDS011;12114;53.404;-1.502;2023-03-31T16:21:11;11.00;;;5.07;;
23866;SDS011;12114;53.404;-1.502;2023-03-31T16:23:57;10.45;;;5.22;;
23866;SDS011;12114;53.404;-1.502;2023-03-31T16:26:42;6.93;;;4.97;;
23866;SDS011;12114;53.404;-1.502;2023-03-31T16:29:25;8.05;;;4.90;;
23866;SDS011;12114;53.404;-1.502;2023-03-31T16:32:14;8.10;;;4.93;;
23866;SDS011;12114;53.404;-1.502;2023-03-31T16:35:02;7.75;;;4.60;;
23866;SDS011;12114;53.404;-1.502;2023-03-31T16:37:46;6.88;;;4.95;;
23866;SDS011;12114;53.404;-1.502;2023-03-31T16:40:34;6.88;;;4.00;;
23866;SDS011;12114;53.404;-1.502;2023-03-31T16:46:02;7.63;;;4.55;;
23866;SDS011;12114;53.404;-1.502;2023-03-31T16:48:47;10.23;;;4.88;;
23866;SDS011;12114;53.404;-1.502;2023-03-31T16:51:31;8.27;;;4.90;;
23866;SDS011;12114;53.404;-1.502;2023-03-31T16:54:15;6.20;;;4.25;;
23866;SDS011;12114;53.404;-1.502;2023-03-31T16:56:59;6.93;;;4.47;;
23866;SDS011;12114;53.404;-1.502;2023-03-31T16:59:44;7.57;;;4.13;;
23866;SDS011;12114;53.404;-1.502;2023-03-31T17:02:27;7.70;;;4.18;;
23866;SDS011;12114;53.404;-1.502;2023-03-31T17:05:12;6.40;;;3.80;;
23866;SDS011;12114;53.404;-1.502;2023-03-31T17:07:56;6.18;;;4.15;;
23866;SDS011;12114;53.404;-1.502;2023-03-31T17:10:41;7.80;;;4.53;;
23866;SDS011;12114;53.404;-1.502;2023-03-31T17:13:25;10.35;;;4.15;;
23866;SDS011;12114;53.404;-1.502;2023-03-31T17:16:10;8.07;;;4.80;;
23866;SDS011;12114;53.404;-1.502;2023-03-31T17:18:54;7.18;;;4.47;;
23866;SDS011;12114;53.404;-1.502;2023-03-31T17:21:38;6.50;;;3.90;;
23866;SDS011;12114;53.404;-1.502;2023-03-31T17:24:22;7.65;;;4.75;;
23866;SDS011;12114;53.404;-1.502;2023-03-31T17:27:06;8.73;;;5.07;;
23866;SDS011;12114;53.404;-1.502;2023-03-31T17:29:50;7.18;;;4.97;;
23866;SDS011;12114;53.404;-1.502;2023-03-31T17:32:34;6.78;;;4.72;;
23866;SDS011;12114;53.404;-1.502;2023-03-31T17:35:19;9.38;;;5.32;;
23866;SDS011;12114;53.404;-1.502;2023-03-31T17:38:04;10.17;;;6.40;;
23866;SDS011;12114;53.404;-1.502;2023-03-31T17:40:48;12.45;;;7.43;;
23866;SDS011;12114;53.404;-1.502;2023-03-31T17:43:32;8.90;;;6.55;;
23866;SDS011;12114;53.404;-1.502;2023-03-31T17:46:16;8.75;;;6.07;;
23866;SDS011;12114;53.404;-1.502;2023-03-31T17:49:01;8.77;;;5.53;;
23866;SDS011;12114;53.404;-1.502;2023-03-31T17:51:45;10.88;;;6.22;;
23866;SDS011;12114;53.404;-1.502;2023-03-31T17:54:29;8.98;;;6.25;;
23866;SDS011;12114;53.404;-1.502;2023-03-31T17:57:13;9.25;;;6.57;;
23866;SDS011;12114;53.404;-1.502;2023-03-31T17:59:57;10.55;;;6.10;;
23866;SDS011;12114;53.404;-1.502;2023-03-31T18:02:41;9.65;;;6.43;;
23866;SDS011;12114;53.404;-1.502;2023-03-31T18:05:25;8.68;;;5.40;;
23866;SDS011;12114;53.404;-1.502;2023-03-31T18:08:09;6.82;;;5.00;;
23866;SDS011;12114;53.404;-1.502;2023-03-31T18:10:53;8.27;;;5.07;;
23866;SDS011;12114;53.404;-1.502;2023-03-31T18:13:37;10.25;;;4.80;;
23866;SDS011;12114;53.404;-1.502;2023-03-31T18:16:22;6.32;;;4.00;;
23866;SDS011;12114;53.404;-1.502;2023-03-31T18:19:06;6.95;;;3.95;;
23866;SDS011;12114;53.404;-1.502;2023-03-31T18:21:50;8.73;;;4.55;;
23866;SDS011;12114;53.404;-1.502;2023-03-31T18:24:34;10.48;;;4.22;;
23866;SDS011;12114;53.404;-1.502;2023-03-31T18:27:21;7.57;;;4.28;;
23866;SDS011;12114;53.404;-1.502;2023-03-31T18:30:05;8.63;;;4.28;;
23866;SDS011;12114;53.404;-1.502;2023-03-31T18:32:50;9.38;;;4.15;;
23866;SDS011;12114;53.404;-1.502;2023-03-31T18:35:34;8.27;;;4.30;;
23866;SDS011;12114;53.404;-1.502;2023-03-31T18:38:17;6.55;;;3.80;;
23866;SDS011;12114;53.404;-1.502;2023-03-31T18:41:02;7.13;;;4.20;;
23866;SDS011;12114;53.404;-1.502;2023-03-31T18:43:46;5.60;;;3.83;;
23866;SDS011;12114;53.404;-1.502;2023-03-31T18:46:30;5.20;;;3.80;;
23866;SDS011;12114;53.404;-1.502;2023-03-31T18:49:17;5.85;;;3.75;;
23866;SDS011;12114;53.404;-1.502;2023-03-31T18:52:02;8.20;;;4.20;;
23866;SDS011;12114;53.404;-1.502;2023-03-31T18:54:48;8.68;;;4.53;;
23866;SDS011;12114;53.404;-1.502;2023-03-31T18:57:33;7.65;;;4.40;;
23866;SDS011;12114;53.404;-1.502;2023-03-31T19:00:17;7.43;;;5.00;;
23866;SDS011;12114;53.404;-1.502;2023-03-31T19:03:03;4.55;;;4.05;;
23866;SDS011;12114;53.404;-1.502;2023-03-31T19:05:47;6.82;;;4.85;;
23866;SDS011;12114;53.404;-1.502;2023-03-31T19:08:31;8.18;;;5.32;;
23866;SDS011;12114;53.404;-1.502;2023-03-31T19:11:15;9.02;;;6.28;;
23866;SDS011;12114;53.404;-1.502;2023-03-31T19:13:59;9.38;;;6.32;;
23866;SDS011;12114;53.404;-1.502;2023-03-31T19:16:44;14.13;;;7.20;;
23866;SDS011;12114;53.404;-1.502;2023-03-31T19:19:28;9.52;;;7.10;;
23866;SDS011;12114;53.404;-1.502;2023-03-31T19:22:12;10.47;;;6.97;;
23866;SDS011;12114;53.404;-1.502;2023-03-31T19:24:56;11.52;;;6.47;;
23866;SDS011;12114;53.404;-1.502;2023-03-31T19:27:41;13.05;;;7.38;;